Time;durP1;ratioP1;P1;durP2;ratioP2;P2;SDS_P1;SDS_P2;PMS_P1;PMS_P2;Temp;Humidity;BMP_temperature;BMP_pressure;BME280_temperature;BME280_humidity;BME280_pressure;Samples;Min_cycle;Max_cycle;Signal;HPM_P1;HPM_P2
2021/07/05 00:04:56;;;;;;;193.32;6.00;;;;;;;;;;10290798;28;20042;-78
2021/07/05 00:09:57;;;;;;;46.85;2.35;;;;;;;;;;10287909;28;20047;-79
2021/07/05 00:14:59;;;;;;;246.45;6.78;;;;;;;;;;10286873;28;20051;-78
2021/07/05 00:20:02;;;;;;;291.10;7.25;;;;;;;;;;10287213;28;20557;-78
2021/07/05 00:25:05;;;;;;;202.35;5.47;;;;;;;;;;10286641;28;20057;-79
2021/07/05 00:30:07;;;;;;;55.40;2.88;;;;;;;;;;10286038;28;20483;-79
2021/07/05 00:35:09;;;;;;;74.10;2.50;;;;;;;;;;10285048;28;20070;-79
2021/07/05 00:40:11;;;;;;;5.03;1.40;;;;;;;;;;10285204;28;20130;-78
2021/07/05 00:45:14;;;;;;;19.35;2.13;;;;;;;;;;10285013;28;20082;-78
2021/07/05 00:50:16;;;;;;;82.60;3.97;;;;;;;;;;10284622;28;20153;-79
2021/07/05 00:55:18;;;;;;;41.40;2.65;;;;;;;;;;10285762;28;20046;-78
2021/07/05 01:00:22;;;;;;;16.92;2.05;;;;;;;;;;10284029;28;20093;-79
2021/07/05 01:05:24;;;;;;;142.43;4.70;;;;;;;;;;10285201;28;20508;-79
2021/07/05 01:10:26;;;;;;;137.77;4.70;;;;;;;;;;10268176;28;20766;-79
2021/07/05 01:15:29;;;;;;;110.32;4.97;;;;;;;;;;10284500;28;20656;-79
2021/07/05 01:20:32;;;;;;;133.10;5.55;;;;;;;;;;10283621;28;20528;-79
2021/07/05 01:25:34;;;;;;;140.32;4.75;;;;;;;;;;10284601;28;20058;-79
2021/07/05 01:30:36;;;;;;;106.10;4.43;;;;;;;;;;10281084;28;20134;-79
2021/07/05 01:35:38;;;;;;;338.42;9.38;;;;;;;;;;10281202;28;20082;-79
2021/07/05 01:40:40;;;;;;;179.40;6.28;;;;;;;;;;10279672;28;20155;-79
2021/07/05 01:45:42;;;;;;;8.52;1.80;;;;;;;;;;10278512;28;20141;-79
2021/07/05 01:50:44;;;;;;;659.95;17.38;;;;;;;;;;10280493;28;20134;-79
2021/07/05 01:55:46;;;;;;;394.27;10.48;;;;;;;;;;10265089;28;20070;-79
2021/07/05 02:00:48;;;;;;;388.58;10.43;;;;;;;;;;10292569;28;20146;-79
2021/07/05 02:05:50;;;;;;;672.38;16.38;;;;;;;;;;10309907;28;20051;-79
2021/07/05 02:10:52;;;;;;;540.72;15.32;;;;;;;;;;10286076;28;20082;-78
2021/07/05 02:15:55;;;;;;;384.38;10.57;;;;;;;;;;10288915;28;20130;-79
2021/07/05 02:20:59;;;;;;;267.70;6.72;;;;;;;;;;10287773;28;20046;-79
2021/07/05 02:26:02;;;;;;;159.18;5.70;;;;;;;;;;10284773;28;20092;-79
2021/07/05 02:31:06;;;;;;;405.02;9.93;;;;;;;;;;10286654;28;20472;-79
2021/07/05 02:36:08;;;;;;;437.10;10.32;;;;;;;;;;10303338;28;20146;-78
2021/07/05 02:41:10;;;;;;;46.35;2.95;;;;;;;;;;10288270;28;20055;-78
2021/07/05 02:46:12;;;;;;;672.35;19.23;;;;;;;;;;10286999;28;20138;-78
2021/07/05 02:51:14;;;;;;;198.60;5.93;;;;;;;;;;10286096;28;20065;-78
2021/07/05 02:56:15;;;;;;;250.95;7.30;;;;;;;;;;10288137;28;20088;-78
2021/07/05 03:01:18;;;;;;;96.53;5.40;;;;;;;;;;10287752;28;20075;-78
2021/07/05 03:06:20;;;;;;;181.07;7.88;;;;;;;;;;10282579;28;20106;-78
2021/07/05 03:11:22;;;;;;;198.90;10.20;;;;;;;;;;10281026;28;20133;-78
2021/07/05 03:16:24;;;;;;;57.08;7.13;;;;;;;;;;10280758;28;20093;-78
2021/07/05 03:21:25;;;;;;;347.40;15.20;;;;;;;;;;10263913;28;20079;-78
2021/07/05 03:26:27;;;;;;;108.00;6.07;;;;;;;;;;10263752;28;20149;-78
2021/07/05 03:31:29;;;;;;;131.45;9.18;;;;;;;;;;10280316;28;20086;-78
2021/07/05 03:36:30;;;;;;;41.83;4.63;;;;;;;;;;10263203;28;20053;-79
2021/07/05 03:41:32;;;;;;;73.50;6.38;;;;;;;;;;10297883;28;20062;-79
2021/07/05 03:46:34;;;;;;;204.13;9.50;;;;;;;;;;10270330;28;20105;-78
2021/07/05 03:51:36;;;;;;;453.55;14.23;;;;;;;;;;10269067;28;20050;-79
2021/07/05 03:56:37;;;;;;;591.60;18.50;;;;;;;;;;10285497;28;20134;-78
2021/07/05 04:01:39;;;;;;;290.30;13.50;;;;;;;;;;10286905;28;20050;-78
2021/07/05 04:06:41;;;;;;;194.90;10.18;;;;;;;;;;10286832;28;20078;-78
2021/07/05 04:11:43;;;;;;;50.40;7.28;;;;;;;;;;10246735;29;20417;-78
2021/07/05 04:16:44;;;;;;;157.55;11.48;;;;;;;;;;10247524;28;20099;-78
2021/07/05 04:21:46;;;;;;;75.50;6.35;;;;;;;;;;10286273;28;20061;-78
2021/07/05 04:26:48;;;;;;;128.93;13.27;;;;;;;;;;10286147;28;20481;-78
2021/07/05 04:31:50;;;;;;;34.33;7.10;;;;;;;;;;10286078;28;20498;-78
2021/07/05 04:36:51;;;;;;;357.23;18.98;;;;;;;;;;10283273;28;20102;-78
2021/07/05 04:41:53;;;;;;;36.22;8.02;;;;;;;;;;10285593;28;20089;-78
2021/07/05 04:46:55;;;;;;;97.47;9.27;;;;;;;;;;10268301;28;20110;-78
2021/07/05 04:51:57;;;;;;;120.00;11.07;;;;;;;;;;10284167;28;20638;-78
2021/07/05 04:56:59;;;;;;;38.90;7.35;;;;;;;;;;10281482;28;20074;-79
2021/07/05 05:02:00;;;;;;;61.60;8.20;;;;;;;;;;10285514;28;20631;-79
2021/07/05 05:07:02;;;;;;;21.27;8.73;;;;;;;;;;10286024;28;20086;-79
2021/07/05 05:12:04;;;;;;;14.98;7.43;;;;;;;;;;10285018;28;20060;-79
2021/07/05 05:17:07;;;;;;;9.80;6.97;;;;;;;;;;10285140;28;20126;-79
2021/07/05 05:22:08;;;;;;;8.63;5.85;;;;;;;;;;10267952;28;20047;-79
2021/07/05 05:27:10;;;;;;;10.00;6.18;;;;;;;;;;10285055;28;20078;-79
2021/07/05 05:32:12;;;;;;;14.88;9.25;;;;;;;;;;10285560;28;20082;-79
2021/07/05 05:37:14;;;;;;;12.98;7.80;;;;;;;;;;10284124;28;20106;-79
2021/07/05 05:42:16;;;;;;;17.52;8.57;;;;;;;;;;10283916;28;20082;-79
2021/07/05 05:47:18;;;;;;;9.40;6.13;;;;;;;;;;10284231;28;20086;-79
2021/07/05 05:52:19;;;;;;;8.85;6.15;;;;;;;;;;10284413;28;20065;-80
2021/07/05 05:57:28;;;;;;;11.90;6.90;;;;;;;;;;10282058;28;20082;-79
2021/07/05 06:02:30;;;;;;;10.27;6.68;;;;;;;;;;10283842;28;20086;-79
2021/07/05 06:07:32;;;;;;;11.32;7.07;;;;;;;;;;10283050;28;20544;-79
2021/07/05 06:12:33;;;;;;;10.10;6.43;;;;;;;;;;10284394;28;20145;-79
2021/07/05 06:17:35;;;;;;;12.77;6.32;;;;;;;;;;10282833;28;20160;-79
2021/07/05 06:22:48;;;;;;;20.63;9.38;;;;;;;;;;10283810;28;20050;-79
2021/07/05 06:27:50;;;;;;;10.45;6.53;;;;;;;;;;10282874;28;20113;-79
2021/07/05 06:32:52;;;;;;;12.20;6.82;;;;;;;;;;10283535;28;20085;-79
2021/07/05 06:37:53;;;;;;;12.40;7.50;;;;;;;;;;10282378;28;20148;-79
2021/07/05 06:42:56;;;;;;;13.27;6.15;;;;;;;;;;10283259;28;20091;-79
2021/07/05 06:47:58;;;;;;;12.75;6.10;;;;;;;;;;10264995;28;20089;-79
2021/07/05 06:52:59;;;;;;;9.15;5.50;;;;;;;;;;10282455;28;20082;-79
2021/07/05 06:58:01;;;;;;;10.63;6.15;;;;;;;;;;10280557;28;20082;-79
2021/07/05 07:03:05;;;;;;;17.83;6.20;;;;;;;;;;10281227;28;20075;-79
2021/07/05 07:08:07;;;;;;;9.15;5.68;;;;;;;;;;10281310;28;20082;-79
2021/07/05 07:13:09;;;;;;;17.85;8.05;;;;;;;;;;10264676;28;20126;-79
2021/07/05 07:18:45;;;;;;;11.68;6.90;;;;;;;;;;10288606;28;20055;-79
2021/07/05 07:23:46;;;;;;;12.07;5.80;;;;;;;;;;10289456;28;20078;-79
2021/07/05 07:28:52;;;;;;;8.23;5.88;;;;;;;;;;10304829;28;20420;-79
2021/07/05 07:33:54;;;;;;;10.38;5.38;;;;;;;;;;10288443;28;20058;-79
2021/07/05 07:39:07;;;;;;;8.02;4.43;;;;;;;;;;10288527;28;20097;-80
2021/07/05 07:44:09;;;;;;;8.82;4.13;;;;;;;;;;10288647;28;20082;-79
2021/07/05 07:49:11;;;;;;;5.45;2.65;;;;;;;;;;10288357;28;20090;-79
2021/07/05 07:54:14;;;;;;;8.60;3.10;;;;;;;;;;10288857;28;20082;-79
2021/07/05 07:59:16;;;;;;;3.75;1.90;;;;;;;;;;10267194;28;20113;-79
2021/07/05 08:04:18;;;;;;;3.42;1.70;;;;;;;;;;10287717;28;20464;-79
2021/07/05 08:09:19;;;;;;;3.33;1.60;;;;;;;;;;10286669;28;20050;-79
2021/07/05 08:14:21;;;;;;;2.10;1.40;;;;;;;;;;10270885;28;20093;-79
2021/07/05 08:19:23;;;;;;;2.72;1.60;;;;;;;;;;10287934;28;20094;-79
2021/07/05 08:24:25;;;;;;;3.60;1.50;;;;;;;;;;10287190;28;20082;-79
2021/07/05 08:29:26;;;;;;;2.63;1.38;;;;;;;;;;10286934;28;20101;-79
2021/07/05 08:34:28;;;;;;;2.38;1.30;;;;;;;;;;10285951;28;20105;-79
2021/07/05 08:39:30;;;;;;;3.13;1.50;;;;;;;;;;10286047;28;20078;-79
2021/07/05 08:44:32;;;;;;;4.07;1.27;;;;;;;;;;10301360;28;20090;-79
2021/07/05 08:49:33;;;;;;;3.72;1.27;;;;;;;;;;10286331;28;20078;-79
2021/07/05 08:54:35;;;;;;;3.15;1.10;;;;;;;;;;10287020;28;20696;-79
2021/07/05 08:59:37;;;;;;;2.30;1.10;;;;;;;;;;10284109;28;20054;-79
2021/07/05 09:04:41;;;;;;;1.90;1.10;;;;;;;;;;10284614;28;20121;-79
2021/07/05 09:09:59;;;;;;;3.47;1.20;;;;;;;;;;10285632;28;20483;-79
2021/07/05 09:15:21;;;;;;;1.80;1.00;;;;;;;;;;10284505;28;20074;-79
2021/07/05 09:20:23;;;;;;;6.00;1.17;;;;;;;;;;10285423;28;20051;-79
2021/07/05 09:25:39;;;;;;;2.13;1.10;;;;;;;;;;10282726;28;20069;-80
2021/07/05 09:30:41;;;;;;;2.47;1.30;;;;;;;;;;10282839;28;20130;-80
2021/07/05 09:35:43;;;;;;;2.50;1.10;;;;;;;;;;10282427;28;20117;-80
2021/07/05 09:40:44;;;;;;;2.78;1.30;;;;;;;;;;10282651;28;20515;-78
2021/07/05 09:45:46;;;;;;;4.03;1.30;;;;;;;;;;10282938;28;20109;-78
2021/07/05 09:50:49;;;;;;;1.52;1.10;;;;;;;;;;10284448;28;20485;-78
2021/07/05 09:55:51;;;;;;;7.63;1.23;;;;;;;;;;10282788;28;20475;-78
2021/07/05 10:00:53;;;;;;;4.18;1.27;;;;;;;;;;10281927;28;20105;-78
2021/07/05 10:05:54;;;;;;;2.15;1.05;;;;;;;;;;10298510;28;20119;-78
2021/07/05 10:11:03;;;;;;;2.83;1.00;;;;;;;;;;10282625;28;20054;-78
2021/07/05 10:16:07;;;;;;;4.47;1.30;;;;;;;;;;10278439;28;20173;-78
2021/07/05 10:21:09;;;;;;;3.42;1.20;;;;;;;;;;10283425;28;20716;-78
2021/07/05 10:26:11;;;;;;;1.52;1.10;;;;;;;;;;10283303;28;20085;-79
2021/07/05 10:31:13;;;;;;;2.58;1.20;;;;;;;;;;10265002;28;20086;-78
2021/07/05 10:36:14;;;;;;;3.08;1.48;;;;;;;;;;10283025;28;20086;-78
2021/07/05 10:41:18;;;;;;;3.08;1.42;;;;;;;;;;10297588;28;20102;-78
2021/07/05 10:46:39;;;;;;;2.53;1.30;;;;;;;;;;10281074;28;20055;-78
2021/07/05 10:51:44;;;;;;;3.33;1.30;;;;;;;;;;10282056;28;20508;-78
2021/07/05 10:56:52;;;;;;;3.05;1.20;;;;;;;;;;10282699;28;20082;-78
2021/07/05 11:01:54;;;;;;;3.47;1.20;;;;;;;;;;10279793;28;20070;-78
2021/07/05 11:06:58;;;;;;;2.05;1.20;;;;;;;;;;10282193;28;20058;-78
2021/07/05 11:12:00;;;;;;;3.63;1.27;;;;;;;;;;10282039;28;20505;-78
2021/07/05 11:17:07;;;;;;;6.63;1.30;;;;;;;;;;10280126;28;20551;-78
2021/07/05 11:22:10;;;;;;;4.72;1.30;;;;;;;;;;10282342;28;20051;-78
2021/07/05 11:27:26;;;;;;;3.95;1.40;;;;;;;;;;10281546;28;20473;-78
2021/07/05 11:32:42;;;;;;;4.55;1.70;;;;;;;;;;10278812;28;20504;-78
2021/07/05 11:37:51;;;;;;;2.95;1.55;;;;;;;;;;10281436;28;20054;-78
2021/07/05 11:42:57;;;;;;;3.70;1.40;;;;;;;;;;10264277;28;20437;-78
2021/07/05 11:47:58;;;;;;;4.22;1.50;;;;;;;;;;10281165;28;20298;-78
2021/07/05 11:53:02;;;;;;;3.35;1.60;;;;;;;;;;10281475;28;20054;-78
2021/07/05 11:58:07;;;;;;;5.05;1.60;;;;;;;;;;10280503;28;20451;-78
2021/07/05 12:03:11;;;;;;;4.45;1.70;;;;;;;;;;10282124;28;20416;-78
2021/07/05 12:08:14;;;;;;;4.18;1.73;;;;;;;;;;10288169;28;20055;-78
2021/07/05 12:13:23;;;;;;;4.00;1.67;;;;;;;;;;10285874;28;20078;-78
2021/07/05 12:18:25;;;;;;;5.43;2.08;;;;;;;;;;10287652;28;20054;-78
2021/07/05 12:23:34;;;;;;;3.75;1.90;;;;;;;;;;10287761;28;20074;-78
2021/07/05 12:28:35;;;;;;;3.20;2.00;;;;;;;;;;10286905;28;20063;-78
2021/07/05 12:33:37;;;;;;;7.97;1.85;;;;;;;;;;10270276;28;20050;-78
2021/07/05 12:38:56;;;;;;;4.22;1.98;;;;;;;;;;10286641;28;20082;-78
2021/07/05 12:44:15;;;;;;;7.40;1.83;;;;;;;;;;10261222;28;20047;-78
2021/07/05 12:49:17;;;;;;;3.95;1.90;;;;;;;;;;10285305;28;20302;-78
2021/07/05 12:54:19;;;;;;;6.82;2.05;;;;;;;;;;10286160;28;20121;-78
2021/07/05 12:59:21;;;;;;;4.28;1.98;;;;;;;;;;10286247;28;20078;-78
2021/07/05 13:04:24;;;;;;;6.47;2.15;;;;;;;;;;10284378;28;20086;-78
2021/07/05 13:09:26;;;;;;;4.90;2.10;;;;;;;;;;10268190;28;20851;-79
2021/07/05 13:14:29;;;;;;;4.20;2.30;;;;;;;;;;10284677;28;20078;-79
2021/07/05 13:19:31;;;;;;;5.55;2.40;;;;;;;;;;10268121;28;20074;-79
2021/07/05 13:24:33;;;;;;;4.95;2.20;;;;;;;;;;10284566;28;20074;-78
2021/07/05 13:29:35;;;;;;;5.53;2.70;;;;;;;;;;10284926;28;20504;-79
2021/07/05 13:34:40;;;;;;;5.70;2.50;;;;;;;;;;10284455;28;20066;-79
2021/07/05 13:39:43;;;;;;;6.88;2.35;;;;;;;;;;10284715;28;20078;-78
2021/07/05 13:44:47;;;;;;;4.40;1.92;;;;;;;;;;10284243;28;20085;-79
2021/07/05 13:50:07;;;;;;;5.93;1.90;;;;;;;;;;10281468;28;20488;-78
2021/07/05 13:55:21;;;;;;;4.82;2.00;;;;;;;;;;10279651;28;20051;-78
2021/07/05 14:00:22;;;;;;;2.58;1.92;;;;;;;;;;10283644;28;20148;-78
2021/07/05 14:05:29;;;;;;;3.47;1.70;;;;;;;;;;10285013;28;20508;-78
2021/07/05 14:10:31;;;;;;;4.90;1.75;;;;;;;;;;10284487;28;20074;-79
2021/07/05 14:15:33;;;;;;;6.28;2.10;;;;;;;;;;10299618;28;20520;-78
2021/07/05 14:20:35;;;;;;;4.47;2.40;;;;;;;;;;10284256;28;20050;-79
2021/07/05 14:25:41;;;;;;;3.15;1.70;;;;;;;;;;10283354;28;20460;-78
2021/07/05 14:30:42;;;;;;;4.47;1.75;;;;;;;;;;10284544;28;20070;-78
2021/07/05 14:35:44;;;;;;;2.40;1.20;;;;;;;;;;10284127;28;20063;-78
2021/07/05 14:40:46;;;;;;;1.77;1.17;;;;;;;;;;10284068;28;20082;-78
2021/07/05 14:45:48;;;;;;;2.95;1.10;;;;;;;;;;10284340;28;20055;-78
2021/07/05 14:50:49;;;;;;;1.63;1.00;;;;;;;;;;10283634;28;20081;-79
2021/07/05 14:55:51;;;;;;;2.35;1.10;;;;;;;;;;10283904;28;20113;-79
2021/07/05 15:00:53;;;;;;;1.60;1.00;;;;;;;;;;10267104;28;20405;-78
2021/07/05 15:05:55;;;;;;;3.13;1.15;;;;;;;;;;10282651;28;20081;-79
2021/07/05 15:10:56;;;;;;;2.42;1.00;;;;;;;;;;10284212;28;20055;-78
2021/07/05 15:15:58;;;;;;;1.83;1.20;;;;;;;;;;10283139;28;20078;-78
2021/07/05 15:21:00;;;;;;;4.95;1.30;;;;;;;;;;10279755;28;20408;-78
2021/07/05 15:26:02;;;;;;;2.92;1.17;;;;;;;;;;10283075;28;20085;-78
2021/07/05 15:31:04;;;;;;;1.10;1.00;;;;;;;;;;10281231;28;20190;-78
2021/07/05 15:36:06;;;;;;;3.38;1.00;;;;;;;;;;10283942;28;20133;-78
2021/07/05 15:41:07;;;;;;;2.25;1.00;;;;;;;;;;10263514;28;20047;-78
2021/07/05 15:46:09;;;;;;;1.67;1.00;;;;;;;;;;10248359;28;20095;-78
2021/07/05 15:51:11;;;;;;;1.42;0.80;;;;;;;;;;10247826;28;20126;-78
2021/07/05 15:56:13;;;;;;;1.27;0.80;;;;;;;;;;10245389;29;20067;-78
2021/07/05 16:01:15;;;;;;;1.20;0.75;;;;;;;;;;10246075;29;20602;-78
2021/07/05 16:06:17;;;;;;;1.10;1.00;;;;;;;;;;10260725;28;20666;-78
2021/07/05 16:11:18;;;;;;;7.68;1.05;;;;;;;;;;10247126;28;20075;-78
2021/07/05 16:16:20;;;;;;;1.48;0.93;;;;;;;;;;10243872;28;20126;-79
2021/07/05 16:21:22;;;;;;;1.85;1.00;;;;;;;;;;10239549;28;20055;-79
2021/07/05 16:26:24;;;;;;;2.00;1.10;;;;;;;;;;10239724;28;20083;-78
2021/07/05 16:31:25;;;;;;;1.05;0.98;;;;;;;;;;10246913;28;20454;-78
2021/07/05 16:36:31;;;;;;;1.92;1.00;;;;;;;;;;10244147;28;20043;-78
2021/07/05 16:41:32;;;;;;;1.08;1.00;;;;;;;;;;10292824;28;20081;-78
2021/07/05 16:46:36;;;;;;;2.50;1.00;;;;;;;;;;10286483;28;20153;-78
2021/07/05 16:51:45;;;;;;;2.10;1.17;;;;;;;;;;10281687;28;20045;-79
2021/07/05 16:56:47;;;;;;;1.60;0.98;;;;;;;;;;10285722;28;20078;-79
2021/07/05 17:01:48;;;;;;;2.72;1.13;;;;;;;;;;10291561;28;20077;-79
2021/07/05 17:06:50;;;;;;;3.28;1.00;;;;;;;;;;10282695;28;20059;-79
2021/07/05 17:11:51;;;;;;;1.20;1.02;;;;;;;;;;10274087;28;20141;-78
2021/07/05 17:16:53;;;;;;;1.13;0.95;;;;;;;;;;10279615;28;20504;-79
2021/07/05 17:22:01;;;;;;;1.23;1.10;;;;;;;;;;10282165;28;20086;-79
2021/07/05 17:27:03;;;;;;;1.27;0.90;;;;;;;;;;10282122;28;20083;-78
2021/07/05 17:32:05;;;;;;;2.70;1.10;;;;;;;;;;10295383;28;20193;-78
2021/07/05 17:37:06;;;;;;;2.58;1.05;;;;;;;;;;10274427;28;20154;-78
2021/07/05 17:42:08;;;;;;;2.63;1.20;;;;;;;;;;10265298;28;20074;-78
2021/07/05 17:47:10;;;;;;;1.58;1.10;;;;;;;;;;10276787;28;20552;-78
2021/07/05 17:52:13;;;;;;;1.77;1.10;;;;;;;;;;10279879;28;20051;-77
2021/07/05 17:57:17;;;;;;;3.53;1.30;;;;;;;;;;10281821;28;20061;-77
2021/07/05 18:02:19;;;;;;;1.67;1.30;;;;;;;;;;10285029;28;20046;-78
2021/07/05 18:07:21;;;;;;;7.43;1.55;;;;;;;;;;10281194;28;20055;-78
2021/07/05 18:12:22;;;;;;;5.60;1.60;;;;;;;;;;10288295;28;20070;-78
2021/07/05 18:17:26;;;;;;;5.82;2.00;;;;;;;;;;10281025;28;20159;-78
2021/07/05 18:22:28;;;;;;;5.88;1.95;;;;;;;;;;10283437;28;20082;-79
2021/07/05 18:27:29;;;;;;;5.38;1.90;;;;;;;;;;10280261;28;20050;-79
2021/07/05 18:32:31;;;;;;;6.60;1.67;;;;;;;;;;10280594;28;20082;-78
2021/07/05 18:37:33;;;;;;;8.10;2.38;;;;;;;;;;10282308;28;20133;-78
2021/07/05 18:42:34;;;;;;;6.75;2.00;;;;;;;;;;10282426;28;20153;-78
2021/07/05 18:47:37;;;;;;;9.07;2.10;;;;;;;;;;10282471;28;20917;-78
2021/07/05 18:52:41;;;;;;;6.32;2.00;;;;;;;;;;10263628;28;20055;-78
2021/07/05 18:57:44;;;;;;;5.63;1.83;;;;;;;;;;10280958;28;20050;-78
2021/07/05 19:02:47;;;;;;;6.25;2.00;;;;;;;;;;10281940;28;20126;-78
2021/07/05 19:07:49;;;;;;;6.13;2.20;;;;;;;;;;10265372;28;20357;-78
2021/07/05 19:12:50;;;;;;;5.70;2.40;;;;;;;;;;10284977;28;20074;-78
2021/07/05 19:17:53;;;;;;;3.72;1.83;;;;;;;;;;10290606;28;20047;-75
2021/07/05 19:22:55;;;;;;;4.90;1.80;;;;;;;;;;10288216;28;20057;-74
2021/07/05 19:27:56;;;;;;;3.60;2.10;;;;;;;;;;10273848;28;20054;-74
2021/07/05 19:32:58;;;;;;;3.88;2.20;;;;;;;;;;10310174;28;20092;-74
2021/07/05 19:37:59;;;;;;;16.02;3.53;;;;;;;;;;10295746;28;20086;-78
2021/07/05 19:43:01;;;;;;;10.77;4.63;;;;;;;;;;10271404;28;20089;-77
2021/07/05 19:48:03;;;;;;;7.90;3.70;;;;;;;;;;10294074;28;20082;-77
2021/07/05 19:53:06;;;;;;;8.93;4.15;;;;;;;;;;10289534;28;20058;-77
2021/07/05 19:58:09;;;;;;;12.77;4.90;;;;;;;;;;10289628;28;20090;-77
2021/07/05 20:03:12;;;;;;;8.18;3.58;;;;;;;;;;10289623;28;20047;-77
2021/07/05 20:08:14;;;;;;;7.93;4.20;;;;;;;;;;10289006;28;20114;-77
2021/07/05 20:13:16;;;;;;;10.35;3.53;;;;;;;;;;10288855;28;20078;-77
2021/07/05 20:18:17;;;;;;;8.88;3.28;;;;;;;;;;10288499;28;20043;-77
2021/07/05 20:23:19;;;;;;;7.75;2.45;;;;;;;;;;10288191;28;20051;-77
2021/07/05 20:28:21;;;;;;;5.97;2.22;;;;;;;;;;10287005;28;20492;-77
2021/07/05 20:33:22;;;;;;;4.63;2.20;;;;;;;;;;10287133;28;20051;-77
2021/07/05 20:38:24;;;;;;;7.22;3.20;;;;;;;;;;10287179;28;20079;-77
2021/07/05 20:43:26;;;;;;;7.28;2.60;;;;;;;;;;10285797;28;20129;-77
2021/07/05 20:48:27;;;;;;;11.00;4.03;;;;;;;;;;10302563;28;20488;-77
2021/07/05 20:53:29;;;;;;;7.85;3.53;;;;;;;;;;10270258;28;20420;-77
2021/07/05 20:58:30;;;;;;;7.72;4.93;;;;;;;;;;10286462;28;20130;-77
2021/07/05 21:03:32;;;;;;;8.30;3.97;;;;;;;;;;10287164;28;20082;-77
2021/07/05 21:08:34;;;;;;;8.68;3.63;;;;;;;;;;10285457;28;20078;-77
2021/07/05 21:13:35;;;;;;;9.68;2.97;;;;;;;;;;10285821;28;20109;-77
2021/07/05 21:18:37;;;;;;;8.45;4.53;;;;;;;;;;10301312;28;20142;-76
2021/07/05 21:23:38;;;;;;;9.00;2.50;;;;;;;;;;10286321;28;20130;-77
2021/07/05 21:28:40;;;;;;;5.28;2.65;;;;;;;;;;10286722;28;20054;-77
2021/07/05 21:33:42;;;;;;;12.00;6.70;;;;;;;;;;10278297;28;20662;-77
2021/07/05 21:38:43;;;;;;;7.22;4.13;;;;;;;;;;10285988;28;20109;-77
2021/07/05 21:43:45;;;;;;;7.85;3.83;;;;;;;;;;10286074;28;20083;-77
2021/07/05 21:48:47;;;;;;;9.02;5.55;;;;;;;;;;10286366;28;20468;-77
2021/07/05 21:53:48;;;;;;;12.90;6.50;;;;;;;;;;10275273;28;20109;-77
2021/07/05 21:58:51;;;;;;;10.02;5.40;;;;;;;;;;10285262;28;20098;-77
2021/07/05 22:03:53;;;;;;;28.75;8.63;;;;;;;;;;10285479;28;20102;-77
2021/07/05 22:08:54;;;;;;;79.53;9.57;;;;;;;;;;10285018;28;20157;-77
2021/07/05 22:13:56;;;;;;;14.65;8.02;;;;;;;;;;10284646;28;20512;-77
2021/07/05 22:18:58;;;;;;;16.02;5.72;;;;;;;;;;10284101;28;20082;-77
2021/07/05 22:23:59;;;;;;;5.10;3.40;;;;;;;;;;10284298;28;20051;-77
2021/07/05 22:29:01;;;;;;;10.85;4.57;;;;;;;;;;10284337;28;20055;-77
2021/07/05 22:34:03;;;;;;;7.82;3.45;;;;;;;;;;10267038;28;20460;-77
2021/07/05 22:39:04;;;;;;;12.55;5.28;;;;;;;;;;10283953;28;20700;-77
2021/07/05 22:44:06;;;;;;;579.95;28.67;;;;;;;;;;10283315;28;20070;-77
2021/07/05 22:49:07;;;;;;;19.35;6.43;;;;;;;;;;10284073;28;20082;-77
2021/07/05 22:54:09;;;;;;;10.52;5.38;;;;;;;;;;10283829;28;20170;-77
2021/07/05 22:59:10;;;;;;;10.30;4.20;;;;;;;;;;10283092;28;20093;-77
2021/07/05 23:04:12;;;;;;;15.13;4.95;;;;;;;;;;10283343;28;20082;-77
2021/07/05 23:09:13;;;;;;;246.77;14.15;;;;;;;;;;10281860;28;20493;-77
2021/07/05 23:14:15;;;;;;;331.65;15.15;;;;;;;;;;10280717;28;20085;-77
2021/07/05 23:19:17;;;;;;;149.13;10.52;;;;;;;;;;10264935;28;20046;-77
2021/07/05 23:24:18;;;;;;;202.68;11.63;;;;;;;;;;10282695;28;20509;-77
2021/07/05 23:29:20;;;;;;;313.90;12.73;;;;;;;;;;10282813;28;20157;-77
2021/07/05 23:34:21;;;;;;;86.10;5.47;;;;;;;;;;10281105;28;20133;-77
2021/07/05 23:39:23;;;;;;;33.85;7.45;;;;;;;;;;10282982;28;20069;-77
2021/07/05 23:44:24;;;;;;;13.90;5.25;;;;;;;;;;10297735;28;20082;-77
2021/07/05 23:49:26;;;;;;;11.77;4.28;;;;;;;;;;10297234;28;20145;-77
2021/07/05 23:54:28;;;;;;;80.38;9.23;;;;;;;;;;10281670;28;20090;-77
2021/07/05 23:59:29;;;;;;;658.25;25.88;;;;;;;;;;10287552;28;20130;-77
